createdAt,value
2023-04-21T00:00:23.559Z,7.83
2023-04-21T00:01:25.071Z,8.03
2023-04-21T00:02:27.450Z,8.30
2023-04-21T00:03:30.384Z,8.27
2023-04-21T00:04:32.653Z,7.87
2023-04-21T00:05:34.782Z,7.53
2023-04-21T00:06:36.717Z,7.50
2023-04-21T00:07:39.151Z,7.53
2023-04-21T00:08:40.744Z,8.20
2023-04-21T00:09:42.818Z,7.97
2023-04-21T00:10:45.276Z,8.43
2023-04-21T00:11:46.864Z,7.80
2023-04-21T00:12:48.387Z,7.17
2023-04-21T00:13:49.903Z,7.50
2023-04-21T00:14:51.492Z,7.47
2023-04-21T00:15:53.061Z,7.40
2023-04-21T00:16:54.640Z,7.17
2023-04-21T00:17:56.227Z,7.23
2023-04-21T00:18:58.272Z,6.97
2023-04-21T00:19:59.860Z,7.20
2023-04-21T00:21:01.492Z,6.87
2023-04-21T00:22:04.511Z,7.73
2023-04-21T00:23:06.119Z,7.50
2023-04-21T00:24:08.044Z,7.90
2023-04-21T00:25:10.127Z,8.13
2023-04-21T00:26:11.802Z,8.87
2023-04-21T00:27:13.607Z,9.13
2023-04-21T00:28:15.179Z,8.27
2023-04-21T00:29:16.911Z,8.43
2023-04-21T00:30:18.610Z,8.13
2023-04-21T00:31:20.146Z,8.50
2023-04-21T00:32:21.727Z,7.67
2023-04-21T00:33:23.386Z,7.97
2023-04-21T00:34:24.984Z,8.27
2023-04-21T00:35:26.769Z,8.10
2023-04-21T00:36:28.553Z,8.03
2023-04-21T00:37:31.059Z,7.83
2023-04-21T00:38:32.633Z,8.07
2023-04-21T00:39:34.252Z,8.10
2023-04-21T00:40:35.844Z,8.00
2023-04-21T00:41:38.608Z,7.43
2023-04-21T00:42:40.358Z,7.47
2023-04-21T00:44:01.640Z,7.37
2023-04-21T00:45:06.645Z,7.30
2023-04-21T00:46:08.191Z,6.97
2023-04-21T00:47:10.164Z,8.23
2023-04-21T00:48:11.826Z,7.67
2023-04-21T00:49:13.660Z,6.97
2023-04-21T00:50:15.341Z,7.80
2023-04-21T00:51:17.435Z,9.10
2023-04-21T00:52:19.393Z,8.80
2023-04-21T00:53:21.850Z,9.20
2023-04-21T00:54:25.371Z,8.30
2023-04-21T00:55:27.090Z,8.60
2023-04-21T00:56:32.100Z,8.73
2023-04-21T00:57:37.594Z,8.53
2023-04-21T00:58:42.717Z,9.67
2023-04-21T00:59:44.503Z,9.40
2023-04-21T01:00:46.145Z,9.77
2023-04-21T01:01:47.739Z,9.73
2023-04-21T01:02:49.693Z,9.27
2023-04-21T01:03:51.951Z,9.07
2023-04-21T01:04:53.567Z,9.10
2023-04-21T01:05:55.151Z,9.07
2023-04-21T01:06:56.815Z,8.87
2023-04-21T01:07:58.476Z,8.83
2023-04-21T01:09:00.206Z,9.13
2023-04-21T01:10:02.839Z,8.60
2023-04-21T01:11:14.427Z,9.07
2023-04-21T01:12:16.067Z,8.30
2023-04-21T01:13:21.006Z,8.60
2023-04-21T01:14:22.565Z,9.13
2023-04-21T01:15:24.704Z,8.90
2023-04-21T01:16:26.958Z,9.07
2023-04-21T01:17:30.337Z,8.63
2023-04-21T01:18:31.970Z,8.53
2023-04-21T01:19:39.447Z,8.67
2023-04-21T01:20:41.311Z,8.53
2023-04-21T01:21:43.096Z,8.63
2023-04-21T01:22:45.357Z,8.23
2023-04-21T01:23:47.039Z,7.90
2023-04-21T01:24:49.311Z,9.03
2023-04-21T01:25:51.604Z,7.70
2023-04-21T01:26:53.217Z,7.90
2023-04-21T01:27:54.874Z,7.90
2023-04-21T01:28:56.943Z,7.60
2023-04-21T01:29:58.516Z,7.30
2023-04-21T01:31:00.173Z,7.70
2023-04-21T01:32:10.711Z,7.70
2023-04-21T01:33:12.548Z,7.80
2023-04-21T01:34:14.227Z,8.30
2023-04-21T01:35:15.785Z,8.20
2023-04-21T01:36:17.437Z,8.20
2023-04-21T01:37:21.948Z,7.90
2023-04-21T01:38:23.625Z,8.23
2023-04-21T01:39:25.227Z,8.60
2023-04-21T01:40:26.940Z,8.67
2023-04-21T01:41:28.583Z,8.77
2023-04-21T01:42:31.100Z,10.07
2023-04-21T01:43:32.656Z,10.07
2023-04-21T01:44:34.824Z,9.50
2023-04-21T01:45:36.452Z,9.27
2023-04-21T01:46:38.628Z,9.30
2023-04-21T01:47:40.367Z,9.20
2023-04-21T01:48:42.083Z,10.00
2023-04-21T01:49:43.628Z,10.07
2023-04-21T01:50:45.354Z,9.40
2023-04-21T01:51:46.859Z,9.43
2023-04-21T01:52:48.547Z,8.60
2023-04-21T01:53:50.049Z,8.03
2023-04-21T01:54:51.612Z,9.37
2023-04-21T01:55:53.196Z,8.87
2023-04-21T01:56:54.884Z,8.90
2023-04-21T01:57:59.181Z,9.30
2023-04-21T01:59:00.774Z,8.77
2023-04-21T02:00:04.044Z,8.83
2023-04-21T02:01:05.860Z,9.37
2023-04-21T02:02:07.792Z,8.97
2023-04-21T02:03:09.575Z,8.40
2023-04-21T02:04:11.456Z,8.50
2023-04-21T02:05:13.173Z,8.77
2023-04-21T02:06:14.962Z,8.40
2023-04-21T02:07:16.535Z,8.33
2023-04-21T02:08:18.179Z,8.70
2023-04-21T02:09:20.057Z,8.23
2023-04-21T02:10:21.931Z,8.17
2023-04-21T02:11:25.204Z,8.10
2023-04-21T02:12:26.793Z,8.37
2023-04-21T02:13:28.371Z,8.13
2023-04-21T02:14:29.928Z,7.93
2023-04-21T02:15:31.558Z,8.10
2023-04-21T02:16:33.315Z,8.30
2023-04-21T02:17:34.980Z,8.60
2023-04-21T02:18:39.933Z,8.37
2023-04-21T02:19:41.467Z,8.23
2023-04-21T02:20:43.095Z,8.17
2023-04-21T02:21:44.631Z,8.20
2023-04-21T02:22:46.218Z,8.70
2023-04-21T02:23:47.811Z,9.43
2023-04-21T02:24:50.034Z,9.07
2023-04-21T02:25:51.573Z,8.87
2023-04-21T02:26:53.100Z,8.53
2023-04-21T02:27:54.614Z,8.73
2023-04-21T02:28:56.256Z,8.67
2023-04-21T02:29:57.776Z,8.17
2023-04-21T02:30:59.298Z,9.20
2023-04-21T02:32:05.560Z,9.23
2023-04-21T02:33:19.703Z,9.47
2023-04-21T02:34:21.570Z,8.97
2023-04-21T02:35:23.167Z,8.57
2023-04-21T02:36:24.703Z,8.57
2023-04-21T02:37:26.673Z,7.80
2023-04-21T02:38:28.301Z,7.53
2023-04-21T02:39:29.879Z,7.57
2023-04-21T02:40:31.430Z,7.33
2023-04-21T02:41:33.094Z,8.03
2023-04-21T02:42:34.931Z,7.70
2023-04-21T02:43:36.547Z,7.50
2023-04-21T02:44:38.684Z,7.63
2023-04-21T02:45:40.696Z,7.63
2023-04-21T02:46:42.874Z,7.77
2023-04-21T02:47:44.519Z,8.50
2023-04-21T02:48:46.086Z,8.37
2023-04-21T02:49:47.820Z,8.13
2023-04-21T02:50:50.724Z,8.13
2023-04-21T02:51:52.313Z,8.20
2023-04-21T02:52:53.809Z,7.60
2023-04-21T02:53:55.443Z,8.27
2023-04-21T02:54:57.012Z,7.97
2023-04-21T02:55:58.575Z,8.00
2023-04-21T02:57:00.068Z,7.93
2023-04-21T02:58:01.550Z,7.87
2023-04-21T02:59:03.051Z,7.50
2023-04-21T03:00:05.665Z,7.23
2023-04-21T03:01:07.318Z,7.50
2023-04-21T03:02:09.067Z,7.70
2023-04-21T03:03:10.903Z,7.33
2023-04-21T03:04:13.093Z,7.50
2023-04-21T03:05:14.784Z,7.17
2023-04-21T03:06:16.389Z,7.13
2023-04-21T03:07:17.923Z,7.20
2023-04-21T03:08:19.427Z,7.23
2023-04-21T03:09:21.500Z,6.70
2023-04-21T03:10:23.227Z,7.30
2023-04-21T03:11:24.799Z,6.87
2023-04-21T03:12:26.368Z,7.37
2023-04-21T03:13:27.923Z,7.87
2023-04-21T03:14:29.426Z,7.40
2023-04-21T03:15:31.211Z,6.83
2023-04-21T03:16:32.814Z,7.00
2023-04-21T03:17:34.438Z,7.07
2023-04-21T03:18:36.430Z,7.03
2023-04-21T03:19:38.058Z,7.40
2023-04-21T03:20:39.650Z,7.10
2023-04-21T03:21:41.218Z,7.27
2023-04-21T03:22:42.733Z,7.37
2023-04-21T03:23:44.788Z,6.97
2023-04-21T03:24:46.338Z,7.60
2023-04-21T03:25:47.934Z,7.40
2023-04-21T03:26:49.592Z,7.87
2023-04-21T03:27:51.550Z,7.33
2023-04-21T03:28:53.060Z,7.80
2023-04-21T03:29:54.659Z,7.97
2023-04-21T03:30:56.225Z,7.20
2023-04-21T03:31:57.893Z,8.03
2023-04-21T03:32:59.551Z,7.60
2023-04-21T03:34:01.190Z,7.23
2023-04-21T03:35:02.852Z,8.20
2023-04-21T03:36:04.592Z,8.03
2023-04-21T03:37:06.305Z,8.00
2023-04-21T03:38:07.886Z,8.00
2023-04-21T03:39:19.210Z,9.10
2023-04-21T03:40:21.533Z,11.03
2023-04-21T03:41:23.107Z,11.20
2023-04-21T03:42:25.910Z,10.73
2023-04-21T03:43:27.536Z,9.50
2023-04-21T03:44:29.144Z,9.20
2023-04-21T03:45:30.816Z,9.50
2023-04-21T03:46:32.554Z,8.67
2023-04-21T03:47:34.383Z,8.43
2023-04-21T03:48:36.022Z,8.97
2023-04-21T03:49:37.602Z,9.07
2023-04-21T03:50:39.192Z,9.30
2023-04-21T03:51:40.754Z,10.80
2023-04-21T03:52:42.277Z,9.13
2023-04-21T03:53:43.923Z,8.30
2023-04-21T03:54:45.489Z,9.27
2023-04-21T03:55:48.865Z,9.33
2023-04-21T03:56:50.552Z,8.57
2023-04-21T03:57:52.143Z,8.73
2023-04-21T03:58:53.646Z,8.27
2023-04-21T03:59:55.306Z,8.83
2023-04-21T04:00:57.094Z,8.83
2023-04-21T04:01:58.721Z,9.13
2023-04-21T04:03:00.699Z,9.83
2023-04-21T04:04:02.756Z,9.90
2023-04-21T04:05:05.286Z,9.30
2023-04-21T04:06:07.165Z,9.70
2023-04-21T04:07:10.073Z,9.97
2023-04-21T04:08:11.632Z,11.57
2023-04-21T04:09:13.273Z,10.83
2023-04-21T04:10:14.814Z,11.00
2023-04-21T04:11:16.359Z,11.90
2023-04-21T04:12:17.921Z,11.30
2023-04-21T04:13:19.725Z,10.13
2023-04-21T04:14:21.307Z,11.30
2023-04-21T04:15:23.847Z,11.17
2023-04-21T04:16:25.652Z,10.50
2023-04-21T04:17:27.366Z,10.70
2023-04-21T04:18:29.083Z,11.03
2023-04-21T04:19:32.047Z,11.17
2023-04-21T04:20:33.614Z,10.53
2023-04-21T04:21:35.220Z,12.53
2023-04-21T04:22:37.045Z,12.03
2023-04-21T04:23:38.946Z,12.13
2023-04-21T04:24:40.482Z,12.33
2023-04-21T04:25:42.693Z,11.83
2023-04-21T04:26:44.531Z,11.23
2023-04-21T04:27:46.502Z,11.83
2023-04-21T04:28:48.186Z,12.10
2023-04-21T04:29:49.680Z,11.60
2023-04-21T04:30:51.318Z,12.27
2023-04-21T04:31:53.235Z,11.83
2023-04-21T04:32:55.564Z,11.57
2023-04-21T04:33:57.624Z,11.27
2023-04-21T04:34:59.474Z,11.30
2023-04-21T04:36:01.068Z,10.90
2023-04-21T04:37:03.478Z,10.77
2023-04-21T04:38:05.030Z,11.20
2023-04-21T04:39:09.373Z,10.93
2023-04-21T04:40:15.467Z,11.03
2023-04-21T04:41:17.038Z,11.13
2023-04-21T04:42:20.304Z,11.20
2023-04-21T04:43:21.866Z,11.00
2023-04-21T04:44:25.833Z,11.70
2023-04-21T04:45:28.691Z,10.13
2023-04-21T04:46:30.387Z,10.37
2023-04-21T04:47:32.054Z,11.07
2023-04-21T04:48:33.668Z,10.67
2023-04-21T04:49:35.221Z,11.53
2023-04-21T04:50:36.835Z,10.43
2023-04-21T04:51:38.701Z,10.90
2023-04-21T04:52:40.691Z,10.83
2023-04-21T04:53:42.221Z,10.57
2023-04-21T04:54:43.756Z,11.07
2023-04-21T04:55:46.168Z,10.63
2023-04-21T04:56:47.713Z,11.10
2023-04-21T04:57:49.819Z,11.23
2023-04-21T04:58:51.450Z,12.00
2023-04-21T04:59:56.207Z,11.53
2023-04-21T05:00:57.899Z,11.83
2023-04-21T05:01:59.519Z,11.70
2023-04-21T05:03:01.214Z,11.33
2023-04-21T05:04:03.140Z,10.87
2023-04-21T05:05:06.589Z,10.33
2023-04-21T05:06:08.401Z,10.17
2023-04-21T05:07:10.732Z,10.90
2023-04-21T05:08:13.724Z,10.70
2023-04-21T05:09:16.836Z,10.37
2023-04-21T05:10:18.459Z,10.50
2023-04-21T05:11:20.401Z,10.80
2023-04-21T05:12:22.417Z,10.50
2023-04-21T05:13:24.024Z,11.07
2023-04-21T05:14:26.668Z,10.60
2023-04-21T05:15:28.436Z,10.70
2023-04-21T05:16:30.116Z,10.60
2023-04-21T05:17:33.434Z,10.83
2023-04-21T05:18:34.974Z,10.70
2023-04-21T05:19:39.704Z,10.80
2023-04-21T05:20:42.556Z,10.17
2023-04-21T05:21:44.306Z,11.37
2023-04-21T05:22:45.953Z,10.90
2023-04-21T05:23:47.477Z,11.23
2023-04-21T05:24:49.065Z,11.10
2023-04-21T05:25:50.670Z,10.93
2023-04-21T05:26:52.177Z,11.27
2023-04-21T05:27:53.689Z,10.80
2023-04-21T05:28:56.777Z,11.23
2023-04-21T05:29:58.435Z,11.07
2023-04-21T05:30:59.997Z,11.50
2023-04-21T05:32:01.950Z,11.33
2023-04-21T05:33:03.800Z,11.93
2023-04-21T05:34:05.411Z,11.80
2023-04-21T05:35:07.506Z,11.47
2023-04-21T05:36:10.201Z,12.83
2023-04-21T05:37:12.387Z,12.27
2023-04-21T05:38:13.976Z,12.23
2023-04-21T05:39:16.532Z,11.67
2023-04-21T05:40:18.160Z,11.80
2023-04-21T05:41:19.725Z,11.33
2023-04-21T05:42:21.929Z,11.80
2023-04-21T05:43:23.598Z,11.23
2023-04-21T05:44:25.678Z,11.17
2023-04-21T05:45:27.705Z,11.17
2023-04-21T05:46:30.384Z,11.10
2023-04-21T05:47:32.009Z,10.90
2023-04-21T05:48:33.616Z,11.50
2023-04-21T05:49:35.268Z,11.20
2023-04-21T05:50:36.856Z,11.33
2023-04-21T05:51:38.453Z,12.03
2023-04-21T05:52:40.157Z,10.93
2023-04-21T05:53:43.692Z,11.33
2023-04-21T05:54:45.457Z,11.77
2023-04-21T05:55:47.003Z,11.77
2023-04-21T05:56:48.665Z,11.20
2023-04-21T05:57:50.335Z,11.27
2023-04-21T05:58:51.944Z,11.70
2023-04-21T05:59:53.577Z,11.67
2023-04-21T06:00:55.494Z,11.20
2023-04-21T06:01:57.046Z,11.47
2023-04-21T06:02:58.922Z,11.17
2023-04-21T06:04:00.976Z,11.50
2023-04-21T06:05:02.907Z,12.30
2023-04-21T06:06:06.507Z,11.53
2023-04-21T06:07:10.426Z,12.57
2023-04-21T06:08:12.336Z,12.30
2023-04-21T06:09:15.703Z,12.13
2023-04-21T06:10:18.324Z,12.57
2023-04-21T06:11:19.899Z,12.77
2023-04-21T06:12:21.510Z,12.60
2023-04-21T06:13:23.097Z,12.97
2023-04-21T06:14:24.712Z,11.97
2023-04-21T06:15:26.253Z,12.43
2023-04-21T06:16:28.124Z,13.60
2023-04-21T06:17:29.768Z,13.03
2023-04-21T06:18:31.377Z,12.73
2023-04-21T06:19:38.422Z,12.63
2023-04-21T06:20:41.006Z,12.27
2023-04-21T06:21:42.582Z,12.27
2023-04-21T06:22:44.103Z,12.43
2023-04-21T06:23:45.817Z,11.27
2023-04-21T06:24:47.356Z,11.90
2023-04-21T06:26:00.448Z,11.30
2023-04-21T06:27:02.018Z,11.33
2023-04-21T06:28:03.637Z,11.53
2023-04-21T06:29:05.180Z,11.50
2023-04-21T06:30:07.466Z,12.70
2023-04-21T06:31:09.840Z,12.27
2023-04-21T06:32:12.617Z,11.90
2023-04-21T06:33:14.196Z,12.60
2023-04-21T06:34:16.255Z,12.00
2023-04-21T06:35:18.832Z,11.20
2023-04-21T06:36:22.913Z,11.70
2023-04-21T06:37:24.529Z,12.13
2023-04-21T06:38:26.246Z,11.50
2023-04-21T06:39:28.836Z,11.90
2023-04-21T06:40:30.474Z,10.67
2023-04-21T06:41:32.004Z,11.23
2023-04-21T06:42:33.553Z,11.47
2023-04-21T06:43:35.731Z,11.33
2023-04-21T06:44:38.608Z,10.63
2023-04-21T06:45:40.274Z,10.63
2023-04-21T06:46:41.910Z,9.87
2023-04-21T06:47:43.509Z,11.07
2023-04-21T06:48:45.106Z,10.60
2023-04-21T06:49:46.671Z,9.50
2023-04-21T06:50:48.282Z,9.63
2023-04-21T06:51:49.862Z,10.13
2023-04-21T06:52:51.400Z,10.20
2023-04-21T06:53:52.980Z,11.53
2023-04-21T06:54:54.512Z,12.03
2023-04-21T06:55:56.330Z,10.73
2023-04-21T06:56:58.060Z,10.70
2023-04-21T06:57:59.644Z,10.50
2023-04-21T06:59:01.247Z,11.00
2023-04-21T07:00:03.073Z,11.30
2023-04-21T07:01:04.729Z,9.67
2023-04-21T07:02:06.471Z,10.60
2023-04-21T07:03:08.168Z,10.13
2023-04-21T07:04:09.851Z,10.50
2023-04-21T07:05:11.424Z,10.13
2023-04-21T07:06:12.990Z,9.37
2023-04-21T07:07:14.585Z,9.80
2023-04-21T07:08:16.151Z,9.77
2023-04-21T07:09:18.481Z,9.40
2023-04-21T07:10:20.405Z,9.10
2023-04-21T07:11:21.976Z,8.63
2023-04-21T07:12:23.569Z,9.20
2023-04-21T07:13:25.213Z,9.30
2023-04-21T07:14:26.860Z,9.40
2023-04-21T07:15:28.479Z,8.83
2023-04-21T07:16:30.363Z,9.83
2023-04-21T07:17:32.000Z,8.83
2023-04-21T07:18:34.759Z,8.50
2023-04-21T07:19:37.083Z,8.57
2023-04-21T07:20:38.690Z,8.60
2023-04-21T07:21:40.307Z,8.47
2023-04-21T07:22:41.824Z,7.97
2023-04-21T07:23:43.353Z,8.70
2023-04-21T07:24:45.799Z,7.50
2023-04-21T07:25:47.521Z,8.60
2023-04-21T07:26:49.117Z,8.37
2023-04-21T07:27:50.772Z,7.83
2023-04-21T07:28:52.906Z,8.20
2023-04-21T07:29:54.414Z,8.02
2023-04-21T07:30:56.827Z,7.70
2023-04-21T07:31:58.664Z,8.50
2023-04-21T07:33:00.814Z,8.70
2023-04-21T07:34:02.487Z,8.55
2023-04-21T07:35:08.399Z,8.10
2023-04-21T07:36:10.061Z,8.38
2023-04-21T07:37:11.676Z,8.07
2023-04-21T07:38:13.239Z,7.88
2023-04-21T07:39:14.821Z,7.70
2023-04-21T07:40:16.407Z,7.40
2023-04-21T07:41:17.965Z,7.80
2023-04-21T07:42:19.541Z,7.40
2023-04-21T07:43:21.065Z,5.75
2023-04-21T07:44:22.697Z,6.82
2023-04-21T07:45:25.437Z,7.65
2023-04-21T07:46:30.458Z,7.82
2023-04-21T07:47:33.038Z,7.25
2023-04-21T07:48:34.645Z,7.85
2023-04-21T07:49:36.326Z,7.40
2023-04-21T07:50:37.872Z,7.05
2023-04-21T07:51:40.248Z,7.10
2023-04-21T07:52:41.782Z,7.43
2023-04-21T07:53:43.822Z,7.22
2023-04-21T07:54:45.495Z,7.47
2023-04-21T07:55:47.158Z,7.80
2023-04-21T07:56:48.721Z,7.30
2023-04-21T07:57:50.550Z,7.22
2023-04-21T07:58:52.112Z,6.40
2023-04-21T07:59:53.681Z,5.00
2023-04-21T08:00:55.345Z,5.53
2023-04-21T08:01:56.976Z,4.38
2023-04-21T08:02:58.694Z,5.68
2023-04-21T08:04:00.582Z,4.70
2023-04-21T08:05:02.409Z,4.90
2023-04-21T08:06:04.873Z,5.40
2023-04-21T08:07:06.706Z,4.85
2023-04-21T08:08:08.484Z,4.95
2023-04-21T08:09:10.044Z,4.68
2023-04-21T08:10:11.690Z,4.82
2023-04-21T08:11:13.207Z,4.50
2023-04-21T08:12:15.080Z,4.82
2023-04-21T08:13:16.720Z,4.72
2023-04-21T08:14:18.635Z,4.40
2023-04-21T08:15:20.533Z,4.90
2023-04-21T08:16:22.271Z,4.45
2023-04-21T08:17:24.071Z,4.87
2023-04-21T08:18:25.772Z,4.63
2023-04-21T08:19:27.429Z,4.80
2023-04-21T08:20:29.105Z,4.40
2023-04-21T08:21:32.033Z,5.10
2023-04-21T08:22:33.755Z,4.80
2023-04-21T08:23:35.469Z,4.90
2023-04-21T08:24:37.079Z,4.93
2023-04-21T08:25:38.761Z,5.15
2023-04-21T08:26:40.346Z,5.20
2023-04-21T08:27:42.007Z,4.77
2023-04-21T08:28:43.524Z,5.70
2023-04-21T08:29:45.115Z,5.23
2023-04-21T08:30:46.724Z,5.82
2023-04-21T08:31:48.295Z,5.03
2023-04-21T08:32:49.901Z,5.00
2023-04-21T08:34:01.075Z,5.17
2023-04-21T08:35:04.316Z,5.03
2023-04-21T08:36:12.488Z,5.20
2023-04-21T08:37:16.880Z,5.03
2023-04-21T08:38:18.627Z,4.93
2023-04-21T08:39:20.353Z,4.70
2023-04-21T08:40:25.461Z,5.30
2023-04-21T08:41:27.283Z,5.28
2023-04-21T08:42:30.119Z,5.30
2023-04-21T08:43:31.808Z,4.70
2023-04-21T08:44:33.361Z,5.03
2023-04-21T08:45:35.816Z,4.72
2023-04-21T08:46:37.606Z,4.93
2023-04-21T08:47:41.104Z,4.20
2023-04-21T08:48:42.646Z,4.80
2023-04-21T08:49:47.209Z,4.28
2023-04-21T08:50:50.044Z,4.77
2023-04-21T08:51:51.646Z,4.60
2023-04-21T08:52:54.744Z,4.55
2023-04-21T08:53:56.773Z,3.92
2023-04-21T08:54:59.206Z,4.72
2023-04-21T08:56:10.945Z,4.40
2023-04-21T08:57:15.739Z,4.43
2023-04-21T08:58:17.911Z,4.60
2023-04-21T08:59:19.740Z,4.38
2023-04-21T09:00:22.016Z,4.93
2023-04-21T09:01:23.668Z,5.00
2023-04-21T09:02:25.545Z,4.65
2023-04-21T09:03:28.460Z,4.40
2023-04-21T09:04:31.177Z,4.38
2023-04-21T09:05:34.967Z,4.70
2023-04-21T09:06:46.210Z,4.68
2023-04-21T09:07:47.993Z,4.43
2023-04-21T09:08:56.202Z,4.53
2023-04-21T09:09:58.607Z,4.95
2023-04-21T09:11:01.598Z,5.05
2023-04-21T09:12:03.530Z,4.80
2023-04-21T09:13:08.973Z,4.78
2023-04-21T09:14:11.461Z,5.07
2023-04-21T09:15:13.051Z,4.93
2023-04-21T09:16:22.815Z,4.57
2023-04-21T09:17:36.805Z,4.83
2023-04-21T09:18:40.378Z,4.90
2023-04-21T09:19:42.231Z,4.93
2023-04-21T09:20:45.371Z,5.07
2023-04-21T09:21:46.899Z,4.70
2023-04-21T09:22:51.212Z,4.20
2023-04-21T09:23:53.662Z,4.50
2023-04-21T09:25:00.336Z,4.80
2023-04-21T09:26:03.629Z,4.07
2023-04-21T09:27:05.247Z,4.78
2023-04-21T09:28:11.145Z,4.72
2023-04-21T09:29:12.693Z,4.40
2023-04-21T09:30:19.464Z,4.23
2023-04-21T09:31:29.002Z,4.40
2023-04-21T09:32:36.782Z,4.57
2023-04-21T09:33:49.571Z,4.38
2023-04-21T09:35:01.437Z,4.40
2023-04-21T09:36:03.441Z,4.20
2023-04-21T09:37:05.282Z,4.28
2023-04-21T09:38:12.412Z,4.30
2023-04-21T09:39:34.405Z,4.40
2023-04-21T09:40:36.048Z,4.28
2023-04-21T09:41:37.573Z,4.20
2023-04-21T09:42:40.234Z,3.90
2023-04-21T09:43:42.958Z,4.20
2023-04-21T09:44:53.190Z,4.40
2023-04-21T09:46:00.558Z,3.72
2023-04-21T09:47:03.771Z,4.07
2023-04-21T09:48:09.585Z,3.95
2023-04-21T09:49:13.840Z,3.97
2023-04-21T09:50:16.385Z,4.03
2023-04-21T09:52:24.296Z,4.32
2023-04-21T09:53:28.521Z,4.22
2023-04-21T09:54:34.517Z,4.45
2023-04-21T09:55:36.814Z,4.70
2023-04-21T09:56:41.094Z,4.05
2023-04-21T09:57:45.056Z,3.60
2023-04-21T09:58:48.822Z,3.95
2023-04-21T10:00:05.395Z,3.78
2023-04-21T10:01:08.898Z,4.70
2023-04-21T10:02:13.065Z,4.05
2023-04-21T10:03:18.289Z,3.83
2023-04-21T10:04:21.370Z,4.07
2023-04-21T10:05:23.590Z,4.07
2023-04-21T10:06:25.236Z,4.18
2023-04-21T10:07:26.963Z,4.22
2023-04-21T10:08:29.178Z,3.90
2023-04-21T10:09:40.352Z,4.43
2023-04-21T10:10:42.010Z,3.78
2023-04-21T10:11:44.078Z,3.72
2023-04-21T10:12:45.998Z,4.30
2023-04-21T10:13:47.878Z,4.28
2023-04-21T10:14:56.432Z,4.22
2023-04-21T10:16:07.741Z,3.97
2023-04-21T10:17:10.699Z,4.47
2023-04-21T10:18:16.564Z,4.68
2023-04-21T10:19:26.258Z,4.43
2023-04-21T10:20:29.474Z,4.25
2023-04-21T10:21:36.629Z,4.35
2023-04-21T10:22:39.706Z,4.35
2023-04-21T10:23:46.497Z,4.85
2023-04-21T10:24:48.294Z,4.38
2023-04-21T10:25:49.892Z,4.00
2023-04-21T10:26:54.550Z,4.22
2023-04-21T10:27:56.712Z,3.65
2023-04-21T10:29:00.200Z,4.03
2023-04-21T10:30:18.106Z,3.95
2023-04-21T10:31:22.929Z,3.97
2023-04-21T10:32:41.411Z,3.95
2023-04-21T10:33:43.069Z,4.00
2023-04-21T10:34:45.706Z,4.43
2023-04-21T10:36:01.432Z,4.47
2023-04-21T10:37:06.230Z,4.22
2023-04-21T10:38:08.160Z,4.00
2023-04-21T10:39:13.018Z,4.30
2023-04-21T10:40:46.862Z,3.80
2023-04-21T10:41:48.364Z,3.67
2023-04-21T10:42:49.972Z,4.13
2023-04-21T10:43:51.588Z,4.70
2023-04-21T10:44:57.236Z,4.25
2023-04-21T10:45:58.808Z,4.00
2023-04-21T10:47:00.476Z,4.22
2023-04-21T10:48:03.956Z,4.03
2023-04-21T10:49:09.587Z,4.00
2023-04-21T10:50:16.430Z,3.90
2023-04-21T10:51:19.023Z,3.92
2023-04-21T10:52:21.470Z,4.07
2023-04-21T10:53:25.502Z,4.07
2023-04-21T10:54:31.553Z,3.33
2023-04-21T10:55:33.126Z,3.25
2023-04-21T10:56:35.567Z,3.63
2023-04-21T10:57:42.510Z,3.42
2023-04-21T10:58:44.398Z,2.83
2023-04-21T10:59:48.123Z,3.03
2023-04-21T11:00:55.105Z,3.08
2023-04-21T11:01:57.288Z,2.90
2023-04-21T11:03:04.434Z,2.90
2023-04-21T11:04:06.382Z,2.90
2023-04-21T11:05:09.435Z,2.90
2023-04-21T11:06:20.936Z,3.20
2023-04-21T11:07:23.524Z,2.70
2023-04-21T11:08:25.199Z,2.78
2023-04-21T11:09:26.795Z,3.15
2023-04-21T11:10:28.512Z,3.70
2023-04-21T11:11:30.162Z,2.78
2023-04-21T11:12:38.280Z,2.42
2023-04-21T11:13:41.475Z,3.17
2023-04-21T11:14:48.331Z,3.28
2023-04-21T11:16:08.507Z,2.85
2023-04-21T11:17:14.467Z,3.45
2023-04-21T11:18:16.208Z,3.15
2023-04-21T11:19:17.892Z,3.63
2023-04-21T11:20:19.514Z,3.35
2023-04-21T11:21:24.872Z,3.17
2023-04-21T11:22:27.063Z,2.92
2023-04-21T11:23:28.729Z,3.00
2023-04-21T11:24:34.197Z,3.10
2023-04-21T11:25:36.491Z,2.92
2023-04-21T11:26:42.758Z,3.45
2023-04-21T11:27:53.671Z,3.20
2023-04-21T11:28:55.357Z,3.67
2023-04-21T11:29:57.507Z,2.92
2023-04-21T11:30:59.253Z,3.28
2023-04-21T11:32:02.082Z,3.58
2023-04-21T11:33:03.790Z,3.33
2023-04-21T11:34:07.257Z,3.10
2023-04-21T11:35:09.246Z,3.50
2023-04-21T11:36:10.944Z,3.00
2023-04-21T11:37:20.740Z,3.40
2023-04-21T11:38:24.564Z,2.92
2023-04-21T11:39:26.124Z,3.70
2023-04-21T11:40:27.665Z,3.58
2023-04-21T11:41:29.253Z,3.42
2023-04-21T11:42:31.271Z,3.67
2023-04-21T11:43:32.935Z,3.90
2023-04-21T11:44:43.313Z,3.50
2023-04-21T11:45:49.435Z,3.65
2023-04-21T11:46:51.182Z,3.63
2023-04-21T11:48:13.565Z,3.75
2023-04-21T11:49:17.348Z,3.30
2023-04-21T11:50:35.697Z,3.13
2023-04-21T11:51:39.786Z,3.28
2023-04-21T11:52:43.474Z,3.47
2023-04-21T11:53:48.263Z,3.30
2023-04-21T11:54:59.668Z,3.22
2023-04-21T11:56:02.034Z,2.75
2023-04-21T11:57:03.811Z,3.30
2023-04-21T11:58:05.926Z,2.85
2023-04-21T11:59:12.017Z,2.67
2023-04-21T12:00:14.520Z,2.53
2023-04-21T12:01:16.895Z,2.42
2023-04-21T12:02:26.951Z,2.40
2023-04-21T12:03:28.753Z,2.40
2023-04-21T12:04:32.189Z,2.33
2023-04-21T12:05:36.946Z,2.30
2023-04-21T12:06:38.675Z,2.63
2023-04-21T12:07:46.305Z,2.83
2023-04-21T12:08:48.013Z,2.47
2023-04-21T12:09:53.493Z,2.70
2023-04-21T12:10:55.239Z,2.97
2023-04-21T12:11:58.916Z,2.30
2023-04-21T12:13:00.886Z,2.33
2023-04-21T12:14:02.451Z,1.90
2023-04-21T12:15:04.525Z,2.00
2023-04-21T12:16:06.474Z,2.40
2023-04-21T12:17:08.046Z,2.47
2023-04-21T12:18:13.836Z,3.03
2023-04-21T12:19:26.599Z,2.90
2023-04-21T12:20:29.856Z,2.80
2023-04-21T12:21:31.685Z,2.53
2023-04-21T12:22:33.556Z,2.25
2023-04-21T12:23:35.108Z,2.28
2023-04-21T12:24:37.412Z,2.45
2023-04-21T12:25:38.917Z,2.55
2023-04-21T12:26:40.890Z,2.72
2023-04-21T12:27:49.903Z,2.72
2023-04-21T12:28:52.188Z,2.42
2023-04-21T12:29:53.729Z,2.35
2023-04-21T12:30:55.967Z,2.42
2023-04-21T12:31:57.620Z,2.30
2023-04-21T12:32:59.307Z,2.00
2023-04-21T12:34:01.020Z,2.38
2023-04-21T12:35:04.309Z,2.53
2023-04-21T12:36:06.113Z,2.45
2023-04-21T12:37:07.788Z,2.53
2023-04-21T12:38:09.551Z,2.85
2023-04-21T12:39:11.168Z,2.60
2023-04-21T12:40:12.790Z,2.83
2023-04-21T12:41:14.335Z,2.92
2023-04-21T12:42:16.055Z,2.65
2023-04-21T12:43:17.698Z,2.58
2023-04-21T12:44:19.209Z,2.55
2023-04-21T12:45:20.806Z,2.80
2023-04-21T12:46:22.662Z,3.13
2023-04-21T12:47:24.401Z,2.45
2023-04-21T12:48:26.059Z,2.38
2023-04-21T12:49:27.851Z,2.60
2023-04-21T12:50:29.488Z,2.22
2023-04-21T12:51:32.246Z,2.53
2023-04-21T12:52:33.830Z,2.42
2023-04-21T12:53:36.823Z,2.63
2023-04-21T12:54:38.396Z,2.80
2023-04-21T12:55:41.278Z,2.78
2023-04-21T12:56:44.865Z,2.60
2023-04-21T12:57:46.533Z,2.80
2023-04-21T12:58:48.462Z,2.53
2023-04-21T12:59:50.103Z,2.83
2023-04-21T13:00:51.650Z,2.70
2023-04-21T13:01:53.337Z,2.60
2023-04-21T13:02:55.090Z,2.30
2023-04-21T13:03:56.959Z,2.25
2023-04-21T13:04:58.569Z,2.10
2023-04-21T13:06:00.179Z,2.50
2023-04-21T13:07:02.031Z,2.40
2023-04-21T13:08:03.588Z,2.78
2023-04-21T13:09:06.360Z,2.40
2023-04-21T13:10:08.596Z,2.40
2023-04-21T13:11:10.655Z,2.25
2023-04-21T13:12:12.242Z,2.33
2023-04-21T13:13:13.876Z,2.70
2023-04-21T13:14:16.004Z,2.67
2023-04-21T13:15:17.599Z,3.10
2023-04-21T13:16:19.287Z,3.40
2023-04-21T13:17:20.969Z,3.13
2023-04-21T13:18:22.530Z,2.63
2023-04-21T13:19:24.173Z,2.90
2023-04-21T13:20:26.194Z,2.63
2023-04-21T13:21:27.932Z,3.08
2023-04-21T13:22:29.654Z,2.22
2023-04-21T13:23:31.298Z,2.92
2023-04-21T13:24:33.361Z,2.60
2023-04-21T13:25:34.924Z,2.45
2023-04-21T13:26:36.617Z,2.70
2023-04-21T13:27:40.055Z,2.63
2023-04-21T13:28:41.973Z,2.53
2023-04-21T13:29:43.551Z,2.65
2023-04-21T13:30:45.737Z,2.58
2023-04-21T13:31:47.423Z,2.78
2023-04-21T13:32:49.194Z,2.63
2023-04-21T13:33:53.038Z,2.40
2023-04-21T13:34:55.427Z,2.75
2023-04-21T13:35:56.986Z,2.70
2023-04-21T13:36:58.953Z,2.10
2023-04-21T13:38:00.564Z,2.50
2023-04-21T13:39:02.248Z,2.03
2023-04-21T13:40:06.078Z,2.30
2023-04-21T13:41:08.322Z,2.10
2023-04-21T13:42:10.074Z,2.10
2023-04-21T13:43:12.190Z,2.38
2023-04-21T13:44:13.964Z,2.25
2023-04-21T13:45:15.520Z,2.50
2023-04-21T13:46:17.139Z,2.10
2023-04-21T13:47:18.819Z,2.22
2023-04-21T13:48:24.272Z,2.20
2023-04-21T13:49:26.656Z,2.03
2023-04-21T13:50:28.248Z,2.33